createdAt,value
2019-04-02T00:04:34.225Z,20
2019-04-02T00:09:33.883Z,24
2019-04-02T00:14:34.084Z,32
2019-04-02T00:19:35.233Z,28
2019-04-02T00:24:34.032Z,27
2019-04-02T00:29:34.132Z,27
2019-04-02T00:34:34.060Z,28
2019-04-02T00:39:34.307Z,22
2019-04-02T00:44:34.109Z,44
2019-04-02T00:49:33.989Z,25
2019-04-02T00:54:33.903Z,31
2019-04-02T00:59:33.993Z,29
2019-04-02T01:04:33.907Z,23
2019-04-02T01:09:33.882Z,23
2019-04-02T01:14:34.169Z,24
2019-04-02T01:19:34.168Z,22
2019-04-02T01:24:34.012Z,24
2019-04-02T01:29:34.038Z,26
2019-04-02T01:34:33.944Z,26
2019-04-02T01:39:33.873Z,22
2019-04-02T01:44:34.082Z,25
2019-04-02T01:49:33.743Z,27
2019-04-02T01:54:33.835Z,25
2019-04-02T01:59:34.082Z,25
2019-04-02T02:04:33.796Z,33
2019-04-02T02:09:35.028Z,29
2019-04-02T02:14:33.802Z,31
2019-04-02T02:19:33.851Z,32
2019-04-02T02:24:33.709Z,30
2019-04-02T02:29:33.715Z,40
2019-04-02T02:34:33.827Z,30
2019-04-02T02:39:33.710Z,31
2019-04-02T02:44:33.947Z,33
2019-04-02T02:49:34.105Z,32
2019-04-02T02:54:33.900Z,37
2019-04-02T02:59:34.044Z,36
2019-04-02T03:04:33.712Z,33
2019-04-02T03:09:34.347Z,36
2019-04-02T03:14:33.652Z,37
2019-04-02T03:19:33.902Z,43
2019-04-02T03:24:33.964Z,40
2019-04-02T03:29:33.810Z,42
2019-04-02T03:34:33.739Z,37
2019-04-02T03:39:33.796Z,34
2019-04-02T03:44:33.842Z,39
2019-04-02T03:49:33.532Z,46
2019-04-02T03:54:33.551Z,41
2019-04-02T03:59:33.920Z,35
2019-04-02T04:04:33.984Z,52
2019-04-02T04:09:33.780Z,35
2019-04-02T04:14:33.393Z,37
2019-04-02T04:19:33.839Z,42
2019-04-02T04:24:33.902Z,43
2019-04-02T04:29:34.204Z,40
2019-04-02T04:34:33.511Z,44
2019-04-02T04:39:33.687Z,47
2019-04-02T04:44:33.474Z,52
2019-04-02T04:49:33.521Z,42
2019-04-02T04:54:33.932Z,48
2019-04-02T04:59:33.546Z,57
2019-04-02T05:04:33.433Z,60
2019-04-02T05:09:33.819Z,49
2019-04-02T05:14:33.671Z,59
2019-04-02T05:19:33.446Z,44
2019-04-02T05:24:33.526Z,50
2019-04-02T05:29:35.349Z,48
2019-04-02T05:34:33.549Z,48
2019-04-02T05:39:33.375Z,46
2019-04-02T05:44:33.638Z,54
2019-04-02T05:49:33.320Z,53
2019-04-02T05:54:33.603Z,43
2019-04-02T05:59:33.647Z,44
2019-04-02T06:04:33.393Z,44
2019-04-02T06:09:33.641Z,42
2019-04-02T06:14:33.435Z,47
2019-04-02T06:19:46.189Z,44
2019-04-02T06:24:33.423Z,53
2019-04-02T06:29:33.595Z,49
2019-04-02T06:34:33.332Z,56
2019-04-02T06:39:33.334Z,45
2019-04-02T06:44:33.666Z,55
2019-04-02T06:49:33.344Z,48
2019-04-02T06:54:33.511Z,59
2019-04-02T06:59:33.153Z,51
2019-04-02T07:04:38.428Z,48
2019-04-02T07:09:44.490Z,47
2019-04-02T07:14:33.277Z,57
2019-04-02T07:19:33.454Z,45
2019-04-02T07:24:35.686Z,45
2019-04-02T07:29:33.665Z,41
2019-04-02T07:34:34.125Z,54
2019-04-02T07:39:33.591Z,54
2019-04-02T07:44:35.240Z,50
2019-04-02T07:49:33.239Z,50
2019-04-02T07:54:33.382Z,50
2019-04-02T07:59:33.453Z,56
2019-04-02T08:04:33.264Z,56
2019-04-02T08:09:33.386Z,43
2019-04-02T08:14:33.427Z,48
2019-04-02T08:19:33.292Z,54
2019-04-02T08:24:33.548Z,47
2019-04-02T08:29:33.462Z,51
2019-04-02T08:34:33.270Z,55
2019-04-02T08:39:33.154Z,50
2019-04-02T08:44:33.432Z,52
2019-04-02T08:49:33.292Z,49
2019-04-02T08:54:33.019Z,55
2019-04-02T08:59:33.052Z,52
2019-04-02T09:04:33.138Z,56
2019-04-02T09:09:33.163Z,52
2019-04-02T09:14:33.403Z,52
2019-04-02T09:19:33.321Z,52
2019-04-02T09:24:33.357Z,52
2019-04-02T09:29:33.365Z,60
2019-04-02T09:34:33.257Z,55
2019-04-02T09:39:33.305Z,53
2019-04-02T09:44:33.275Z,56
2019-04-02T09:49:34.679Z,53
2019-04-02T09:54:34.247Z,55
2019-04-02T09:59:33.233Z,52
2019-04-02T10:04:33.047Z,52
2019-04-02T10:09:35.104Z,55
2019-04-02T10:14:33.145Z,57
2019-04-02T10:19:33.195Z,56
2019-04-02T10:24:33.194Z,57
2019-04-02T10:29:32.999Z,55
2019-04-02T10:34:34.793Z,52
2019-04-02T10:39:33.231Z,59
2019-04-02T10:44:33.110Z,58
2019-04-02T10:49:33.205Z,57
2019-04-02T10:54:33.181Z,59
2019-04-02T10:59:33.037Z,61
2019-04-02T11:04:33.241Z,62
2019-04-02T11:09:33.530Z,58
2019-04-02T11:14:32.942Z,61
2019-04-02T11:19:33.324Z,61
2019-04-02T11:24:32.873Z,56
2019-04-02T11:29:33.153Z,57
2019-04-02T11:34:33.181Z,43
2019-04-02T11:39:32.986Z,56
2019-04-02T11:44:33.136Z,54
2019-04-02T11:49:33.005Z,58
2019-04-02T11:54:32.860Z,57
2019-04-02T11:59:32.991Z,62
2019-04-02T12:04:32.994Z,59
2019-04-02T12:09:44.375Z,52
2019-04-02T12:14:32.996Z,60
2019-04-02T12:19:35.332Z,58
2019-04-02T12:24:32.779Z,57
2019-04-02T12:29:33.032Z,58
2019-04-02T12:34:33.073Z,56
2019-04-02T12:39:32.800Z,58
2019-04-02T12:44:32.979Z,54
2019-04-02T12:49:33.162Z,50
2019-04-02T12:54:32.743Z,61
2019-04-02T12:59:32.931Z,58
2019-04-02T13:04:34.488Z,43
2019-04-02T13:09:33.125Z,55
2019-04-02T13:14:32.808Z,57
2019-04-02T13:19:32.969Z,55
2019-04-02T13:24:32.800Z,45
2019-04-02T13:29:32.763Z,42
2019-04-02T13:34:32.789Z,51
2019-04-02T13:39:33.006Z,52
2019-04-02T13:44:33.017Z,49
2019-04-02T13:49:32.979Z,54
2019-04-02T13:54:35.049Z,52
2019-04-02T13:59:33.061Z,56
2019-04-02T14:04:32.926Z,50
2019-04-02T14:09:32.808Z,49
2019-04-02T14:14:32.650Z,50
2019-04-02T14:19:32.769Z,52
2019-04-02T14:24:32.627Z,45
2019-04-02T14:29:32.919Z,53
2019-04-02T14:34:32.705Z,44
2019-04-02T14:39:32.673Z,45
2019-04-02T14:44:32.784Z,42
2019-04-02T14:49:32.869Z,48
2019-04-02T14:54:32.810Z,50
2019-04-02T14:59:32.794Z,48
2019-04-02T15:04:33.835Z,50
2019-04-02T15:09:32.766Z,52
2019-04-02T15:14:41.420Z,52
2019-04-02T15:19:32.801Z,56
2019-04-02T15:24:32.724Z,47
2019-04-02T15:29:32.744Z,48
2019-04-02T15:34:32.559Z,50
2019-04-02T15:39:32.902Z,54
2019-04-02T15:44:32.498Z,49
2019-04-02T15:49:32.901Z,52
2019-04-02T15:54:32.547Z,57
2019-04-02T15:59:32.695Z,53
2019-04-02T16:04:32.951Z,43
2019-04-02T16:09:32.803Z,54
2019-04-02T16:14:32.702Z,54
2019-04-02T16:19:32.487Z,62
2019-04-02T16:24:32.802Z,63
2019-04-02T16:29:32.764Z,56
2019-04-02T16:34:38.286Z,50
2019-04-02T16:39:32.588Z,38
2019-04-02T16:44:32.518Z,43
2019-04-02T16:49:32.537Z,40
2019-04-02T16:54:32.606Z,44
2019-04-02T16:59:32.447Z,45
2019-04-02T17:04:32.671Z,44
2019-04-02T17:09:32.472Z,44
2019-04-02T17:14:34.027Z,40
2019-04-02T17:19:32.725Z,42
2019-04-02T17:24:32.827Z,40
2019-04-02T17:29:32.358Z,42
2019-04-02T17:34:32.419Z,35
2019-04-02T17:39:32.878Z,39
2019-04-02T17:44:32.734Z,47
2019-04-02T17:49:33.547Z,45
2019-04-02T17:54:32.495Z,42
2019-04-02T17:59:32.534Z,44
2019-04-02T18:04:42.271Z,48
2019-04-02T18:09:32.485Z,48
2019-04-02T18:14:33.693Z,48
2019-04-02T18:19:32.761Z,48
2019-04-02T18:24:32.449Z,60
2019-04-02T18:29:32.599Z,49
2019-04-02T18:34:32.340Z,56
2019-04-02T18:39:34.635Z,46
2019-04-02T18:44:33.251Z,49
2019-04-02T18:49:32.427Z,44
2019-04-02T18:54:32.460Z,55
2019-04-02T18:59:32.312Z,50
2019-04-02T19:04:32.741Z,55
2019-04-02T19:09:33.593Z,55
2019-04-02T19:14:32.150Z,54
2019-04-02T19:19:32.134Z,67
2019-04-02T19:24:32.720Z,46
2019-04-02T19:29:32.229Z,51
2019-04-02T19:34:32.237Z,48
2019-04-02T19:39:32.054Z,60
2019-04-02T19:44:32.207Z,55
2019-04-02T19:49:32.331Z,56
2019-04-02T19:54:32.301Z,58
2019-04-02T19:59:32.099Z,63
2019-04-02T20:04:32.150Z,57
2019-04-02T20:09:32.192Z,64
2019-04-02T20:14:32.100Z,57
2019-04-02T20:19:32.439Z,62
2019-04-02T20:24:32.082Z,59
2019-04-02T20:29:32.362Z,56
2019-04-02T20:34:32.239Z,51
2019-04-02T20:39:32.029Z,46
2019-04-02T20:44:33.309Z,36
2019-04-02T20:49:34.823Z,26
2019-04-02T20:54:32.307Z,33
2019-04-02T20:59:32.031Z,40
2019-04-02T21:04:32.352Z,43
2019-04-02T21:09:32.418Z,37
2019-04-02T21:14:32.432Z,44
2019-04-02T21:19:31.955Z,38
2019-04-02T21:24:32.159Z,31
2019-04-02T21:29:32.279Z,33
2019-04-02T21:34:38.624Z,37
2019-04-02T21:39:32.107Z,38
2019-04-02T21:44:32.195Z,39
2019-04-02T21:49:32.241Z,34
2019-04-02T21:54:32.058Z,35
2019-04-02T21:59:32.323Z,47
2019-04-02T22:04:32.213Z,26
2019-04-02T22:09:32.251Z,29
2019-04-02T22:14:32.185Z,27
2019-04-02T22:19:32.176Z,24
2019-04-02T22:24:32.123Z,38
2019-04-02T22:29:31.906Z,32
2019-04-02T22:34:32.134Z,32
2019-04-02T22:39:32.038Z,35
2019-04-02T22:44:32.154Z,32
2019-04-02T22:49:32.309Z,33
2019-04-02T22:54:32.354Z,38
2019-04-02T22:59:32.561Z,39
2019-04-02T23:04:32.328Z,39
2019-04-02T23:09:33.178Z,40
2019-04-02T23:14:34.013Z,41
2019-04-02T23:19:32.199Z,40
2019-04-02T23:24:31.773Z,44
2019-04-02T23:29:32.089Z,44
2019-04-02T23:34:31.924Z,52
2019-04-02T23:39:32.614Z,40
2019-04-02T23:44:33.519Z,48
2019-04-02T23:49:33.195Z,34
2019-04-02T23:54:33.283Z,43
2019-04-02T23:59:34.350Z,46
